Atchison, Kansas
Current Conditions -  °F | °C
As of 12:53 PM on Monday 22 Dec 2014 (Local Time) from KSTJ Reporting Station
Light Rain Light Rain  
Wind Chill: 40°   Ceiling: 700
Heat Index: 44°   Visibility: 4mi
Dew Point: 43°   Wind: 8mph
Humidity: 96%   Direction: 160°SSE
Pressure: 29.47"   Gusts: NA
Location:  39.56°N, 95.13°W
Report Text: KSTJ 221853Z 16007KT 4SM -RA BR OVC007 07/06 A2947 RMK AO2 SLP980 P0004 T00670061
Loading
Personal Weather Stations






























Interactive Weather Map New forecast layout! Learn more

10-Day Weather Forecast

Advertisements
Track Severe Weather on mobile